Time;durP1;ratioP1;P1;durP2;ratioP2;P2;SDS_P1;SDS_P2;PMS_P1;PMS_P2;Temp;Humidity;BMP_temperature;BMP_pressure;BME280_temperature;BME280_humidity;BME280_pressure;Samples;Min_cycle;Max_cycle;Signal;HPM_P1;HPM_P2
2022/02/22 00:02:06;;;;;;;6.23;5.73;;;7.20;47.70;;;;;;5093300;28;20865;-79
2022/02/22 00:04:36;;;;;;;6.10;5.60;;;7.20;47.50;;;;;;5093709;28;20763;-78
2022/02/22 00:07:08;;;;;;;5.50;5.10;;;7.20;48.70;;;;;;5094758;28;20489;-78
2022/02/22 00:09:33;;;;;;;6.30;5.80;;;7.20;48.30;;;;;;5091368;28;20435;-81
2022/02/22 00:11:59;;;;;;;6.87;6.17;;;7.20;47.40;;;;;;5102916;28;20401;-81
2022/02/22 00:14:25;;;;;;;6.03;5.53;;;7.30;46.50;;;;;;5111705;28;20563;-81
2022/02/22 00:16:55;;;;;;;4.90;4.70;;;7.20;46.30;;;;;;5110725;28;20522;-81
2022/02/22 00:19:22;;;;;;;5.73;5.30;;;7.20;46.40;;;;;;5110819;28;20189;-81
2022/02/22 00:21:48;;;;;;;5.40;5.10;;;7.30;45.30;;;;;;5111106;28;20419;-81
2022/02/22 00:24:14;;;;;;;7.37;5.43;;;7.30;44.50;;;;;;5110451;28;20455;-80
2022/02/22 00:26:40;;;;;;;5.40;4.90;;;7.30;45.70;;;;;;5110695;28;20498;-81
2022/02/22 00:29:06;;;;;;;5.63;5.23;;;7.30;45.30;;;;;;5110362;28;20170;-81
2022/02/22 00:31:31;;;;;;;5.03;4.70;;;7.20;47.00;;;;;;5110544;28;20197;-81
2022/02/22 00:33:57;;;;;;;5.93;5.33;;;7.20;47.70;;;;;;5109832;28;20178;-80
2022/02/22 00:36:22;;;;;;;6.87;5.00;;;7.20;47.60;;;;;;5110460;28;20634;-81
2022/02/22 00:38:49;;;;;;;6.00;5.60;;;7.10;49.50;;;;;;5110444;28;20205;-81
2022/02/22 00:41:16;;;;;;;5.23;4.83;;;7.00;49.00;;;;;;5110079;28;20174;-81
2022/02/22 00:43:42;;;;;;;6.00;5.60;;;7.10;47.70;;;;;;5110127;28;20570;-81
2022/02/22 00:46:07;;;;;;;6.17;5.67;;;7.10;48.20;;;;;;5109772;28;21042;-81
2022/02/22 00:48:33;;;;;;;6.50;5.00;;;7.10;46.50;;;;;;5109675;28;20416;-81
2022/02/22 00:50:59;;;;;;;5.23;4.83;;;7.10;46.30;;;;;;5109992;28;20209;-81
2022/02/22 00:53:25;;;;;;;5.83;5.30;;;7.10;47.00;;;;;;5110122;28;20544;-81
2022/02/22 00:55:50;;;;;;;5.60;5.10;;;7.20;44.90;;;;;;5109450;28;20181;-81
2022/02/22 00:58:16;;;;;;;5.37;4.87;;;7.20;45.80;;;;;;5092788;28;20176;-78
2022/02/22 01:00:42;;;;;;;5.30;5.00;;;7.20;45.70;;;;;;5093030;28;20184;-78
2022/02/22 01:03:08;;;;;;;5.77;4.93;;;7.20;44.90;;;;;;5093546;28;20184;-78
2022/02/22 01:05:33;;;;;;;6.67;5.83;;;7.10;45.10;;;;;;5092992;28;20491;-78
2022/02/22 01:07:59;;;;;;;6.57;5.10;;;7.00;46.30;;;;;;5093036;28;20166;-78
2022/02/22 01:10:25;;;;;;;9.60;5.90;;;7.10;45.50;;;;;;5093144;28;20540;-78
2022/02/22 01:12:50;;;;;;;5.33;5.03;;;7.10;45.70;;;;;;5092594;28;20251;-78
2022/02/22 01:15:16;;;;;;;6.30;5.90;;;7.10;45.10;;;;;;5091900;28;20588;-78
2022/02/22 01:17:41;;;;;;;5.20;4.90;;;7.10;45.00;;;;;;5110628;28;20558;-79
2022/02/22 01:20:09;;;;;;;5.70;5.20;;;7.00;45.40;;;;;;5092027;28;20181;-79
2022/02/22 01:22:36;;;;;;;5.40;4.90;;;7.00;45.70;;;;;;5086378;28;20178;-78
2022/02/22 01:25:05;;;;;;;7.70;5.50;;;7.00;46.50;;;;;;5086721;28;20500;-78
2022/02/22 01:27:31;;;;;;;5.20;4.80;;;7.00;45.70;;;;;;5092037;28;20408;-78
2022/02/22 01:29:56;;;;;;;5.60;5.20;;;7.10;45.10;;;;;;5091908;28;20412;-81
2022/02/22 01:32:22;;;;;;;5.97;5.37;;;7.10;45.60;;;;;;5091681;28;20480;-81
2022/02/22 01:34:48;;;;;;;5.90;5.40;;;7.10;45.40;;;;;;5091852;28;20532;-81
2022/02/22 01:37:14;;;;;;;6.93;5.00;;;7.10;46.30;;;;;;5091718;28;20174;-79
2022/02/22 01:39:39;;;;;;;5.80;5.30;;;7.10;46.10;;;;;;5111163;28;20579;-81
2022/02/22 01:42:05;;;;;;;5.77;5.17;;;7.00;47.00;;;;;;5092205;28;20233;-81
2022/02/22 01:44:31;;;;;;;5.20;4.90;;;7.00;47.80;;;;;;5110719;28;20162;-81
2022/02/22 01:47:02;;;;;;;6.90;5.30;;;7.00;49.90;;;;;;5091379;28;20201;-81
2022/02/22 01:49:28;;;;;;;7.80;6.10;;;6.90;51.00;;;;;;5092600;28;20196;-81
2022/02/22 01:51:55;;;;;;;5.63;5.23;;;6.90;51.10;;;;;;5091706;28;20957;-81
2022/02/22 01:54:22;;;;;;;5.40;4.90;;;6.70;52.30;;;;;;5092089;28;20404;-81
2022/02/22 01:56:48;;;;;;;6.60;5.63;;;6.60;53.80;;;;;;5092129;28;20788;-78
2022/02/22 01:59:15;;;;;;;8.63;5.97;;;6.50;54.40;;;;;;5092079;28;20438;-77
2022/02/22 02:01:40;;;;;;;5.70;5.30;;;6.50;54.20;;;;;;5092045;28;20426;-77
2022/02/22 02:04:06;;;;;;;5.57;5.17;;;6.50;53.60;;;;;;5092203;28;20879;-77
2022/02/22 02:06:34;;;;;;;6.13;5.37;;;6.40;54.70;;;;;;5092173;28;20297;-78
2022/02/22 02:08:59;;;;;;;5.50;5.20;;;6.40;54.80;;;;;;5091840;28;20415;-79
2022/02/22 02:11:25;;;;;;;6.40;5.10;;;6.40;54.20;;;;;;5092759;28;20416;-78
2022/02/22 02:13:51;;;;;;;6.63;5.57;;;6.40;53.90;;;;;;5091671;28;20170;-78
2022/02/22 02:16:17;;;;;;;5.67;5.07;;;6.40;53.10;;;;;;5092010;28;20224;-78
2022/02/22 02:18:42;;;;;;;5.53;5.13;;;6.50;51.80;;;;;;5091520;28;20185;-78
2022/02/22 02:21:09;;;;;;;5.77;5.30;;;6.50;50.80;;;;;;5091880;28;20412;-78
2022/02/22 02:23:35;;;;;;;7.00;5.10;;;6.50;50.90;;;;;;5091946;28;20205;-78
2022/02/22 02:26:00;;;;;;;5.33;5.10;;;6.40;51.80;;;;;;5091662;28;20452;-79
2022/02/22 02:28:26;;;;;;;5.70;5.40;;;6.50;50.50;;;;;;5091427;28;20177;-79
2022/02/22 02:30:52;;;;;;;5.40;5.00;;;6.50;51.10;;;;;;5092089;28;20166;-82
2022/02/22 02:33:17;;;;;;;6.27;5.77;;;6.50;51.20;;;;;;5092001;28;20170;-82
2022/02/22 02:35:43;;;;;;;6.43;6.03;;;6.40;51.50;;;;;;5091819;28;20549;-82
2022/02/22 02:38:09;;;;;;;6.37;5.77;;;6.40;51.40;;;;;;5091906;28;20542;-79
2022/02/22 02:40:36;;;;;;;6.60;6.20;;;6.50;50.80;;;;;;5094388;28;20264;-79
2022/02/22 02:43:01;;;;;;;7.93;5.53;;;6.50;51.60;;;;;;5095803;28;20411;-79
2022/02/22 02:45:27;;;;;;;6.57;5.93;;;6.50;50.20;;;;;;5096293;28;20462;-79
2022/02/22 02:47:52;;;;;;;10.13;5.47;;;6.50;50.60;;;;;;5096337;28;20196;-79
2022/02/22 02:50:18;;;;;;;6.40;5.50;;;6.40;51.60;;;;;;5096517;28;20185;-79
2022/02/22 02:52:44;;;;;;;5.60;5.10;;;6.40;50.60;;;;;;5096125;28;20170;-79
2022/02/22 02:55:10;;;;;;;6.37;5.87;;;6.40;50.60;;;;;;5096627;28;20267;-79
2022/02/22 02:57:36;;;;;;;6.00;5.70;;;6.40;50.50;;;;;;5095721;28;20721;-79
2022/02/22 03:00:04;;;;;;;6.67;6.00;;;6.30;50.30;;;;;;5096174;28;20175;-79
2022/02/22 03:02:30;;;;;;;5.93;5.63;;;6.30;50.00;;;;;;5095482;28;20411;-82
2022/02/22 03:04:58;;;;;;;9.03;5.60;;;6.20;50.20;;;;;;5095733;28;20412;-82
2022/02/22 03:07:25;;;;;;;6.60;6.10;;;6.40;49.40;;;;;;5095633;28;20196;-80
2022/02/22 03:09:51;;;;;;;7.83;5.70;;;6.40;48.70;;;;;;5095348;28;20416;-82
2022/02/22 03:12:17;;;;;;;6.70;6.10;;;6.40;48.20;;;;;;5095440;28;20757;-82
2022/02/22 03:14:42;;;;;;;8.03;6.47;;;6.30;48.10;;;;;;5095777;28;20669;-82
2022/02/22 03:17:08;;;;;;;6.10;5.70;;;6.30;48.30;;;;;;5095614;28;20651;-81
2022/02/22 03:19:33;;;;;;;6.27;5.67;;;6.40;47.50;;;;;;5096216;28;20698;-81
2022/02/22 03:21:59;;;;;;;6.10;5.70;;;6.40;47.00;;;;;;5095481;28;20538;-82
2022/02/22 03:24:24;;;;;;;9.97;6.33;;;6.40;47.70;;;;;;5095885;28;20177;-82
2022/02/22 03:26:50;;;;;;;6.83;6.10;;;6.40;47.40;;;;;;5095719;28;20292;-82
2022/02/22 03:29:16;;;;;;;5.63;5.33;;;6.50;47.80;;;;;;5094599;28;20230;-81
2022/02/22 03:31:41;;;;;;;7.27;6.57;;;6.50;48.00;;;;;;5095128;28;20261;-82
2022/02/22 03:34:07;;;;;;;8.77;5.97;;;6.40;48.10;;;;;;5094661;28;20181;-81
2022/02/22 03:36:33;;;;;;;6.87;6.37;;;6.40;48.40;;;;;;5094487;28;20177;-82
2022/02/22 03:38:58;;;;;;;6.70;5.70;;;6.40;48.20;;;;;;5094687;28;20748;-82
2022/02/22 03:41:24;;;;;;;6.10;5.73;;;6.30;48.30;;;;;;5112633;28;20176;-82
2022/02/22 03:43:50;;;;;;;11.50;6.30;;;6.30;48.10;;;;;;5093957;28;20174;-82
2022/02/22 03:46:16;;;;;;;6.40;5.80;;;6.30;48.30;;;;;;5093985;28;20465;-82
2022/02/22 03:48:42;;;;;;;10.17;5.97;;;6.40;49.00;;;;;;5094126;28;20805;-83
2022/02/22 03:51:07;;;;;;;6.40;5.90;;;6.30;49.30;;;;;;5093701;28;20533;-82
2022/02/22 03:53:33;;;;;;;6.73;6.10;;;6.30;49.30;;;;;;5093913;28;20169;-82
2022/02/22 03:55:59;;;;;;;7.13;6.53;;;6.40;49.00;;;;;;5094055;28;20257;-82
2022/02/22 03:58:25;;;;;;;6.97;5.93;;;6.40;49.40;;;;;;5093967;28;20422;-82
2022/02/22 04:00:50;;;;;;;6.73;6.33;;;6.50;49.00;;;;;;5094313;28;20539;-80
2022/02/22 04:03:16;;;;;;;6.60;6.10;;;6.40;49.40;;;;;;5094479;28;20713;-81
2022/02/22 04:05:46;;;;;;;6.33;5.83;;;6.40;49.40;;;;;;5093386;28;20209;-78
2022/02/22 04:08:12;;;;;;;7.47;6.87;;;6.30;50.50;;;;;;5094358;28;20660;-77
2022/02/22 04:10:38;;;;;;;7.40;6.83;;;6.40;50.20;;;;;;5093907;28;20412;-77
2022/02/22 04:13:04;;;;;;;7.23;6.73;;;6.30;49.90;;;;;;5093873;28;20763;-77
2022/02/22 04:15:29;;;;;;;6.27;5.87;;;6.30;49.30;;;;;;5094411;28;20581;-78
2022/02/22 04:17:55;;;;;;;14.37;6.47;;;6.30;49.40;;;;;;5094525;28;20262;-78
2022/02/22 04:20:20;;;;;;;8.00;7.03;;;6.30;50.70;;;;;;5094358;28;20233;-77
2022/02/22 04:22:46;;;;;;;7.27;6.87;;;6.20;52.80;;;;;;5095387;28;20190;-77
2022/02/22 04:25:12;;;;;;;7.97;6.50;;;6.20;53.50;;;;;;5095271;28;20198;-78
2022/02/22 04:27:38;;;;;;;8.17;7.20;;;6.00;53.90;;;;;;5095807;28;20199;-78
2022/02/22 04:30:08;;;;;;;8.23;7.53;;;6.00;55.00;;;;;;5095036;28;20442;-77
2022/02/22 04:32:34;;;;;;;7.50;6.90;;;6.00;53.90;;;;;;5095334;28;20170;-77
2022/02/22 04:34:59;;;;;;;7.73;7.03;;;6.00;53.60;;;;;;5095651;28;20510;-77
2022/02/22 04:37:25;;;;;;;6.90;6.60;;;5.90;53.80;;;;;;5095492;28;20223;-78
2022/02/22 04:39:51;;;;;;;7.80;6.70;;;5.90;55.10;;;;;;5096412;28;20178;-78
2022/02/22 04:42:18;;;;;;;8.10;7.60;;;5.90;54.80;;;;;;5096352;28;20695;-78
2022/02/22 04:44:44;;;;;;;7.07;6.63;;;6.10;52.40;;;;;;5096055;28;20264;-78
2022/02/22 04:47:11;;;;;;;7.90;7.20;;;6.10;52.40;;;;;;5096376;28;20511;-79
2022/02/22 04:49:37;;;;;;;6.83;6.40;;;6.10;52.60;;;;;;5096113;28;20169;-78
2022/02/22 04:52:04;;;;;;;8.10;7.10;;;5.90;52.50;;;;;;5095598;28;20469;-78
2022/02/22 04:54:30;;;;;;;6.97;6.60;;;6.00;51.80;;;;;;5095930;28;21137;-78
2022/02/22 04:56:55;;;;;;;7.40;6.90;;;6.00;51.10;;;;;;5095670;28;20569;-78
2022/02/22 04:59:21;;;;;;;7.60;7.00;;;6.00;51.30;;;;;;5095779;28;20487;-78
2022/02/22 05:01:47;;;;;;;7.07;6.50;;;6.00;51.40;;;;;;5094611;28;20419;-79
2022/02/22 05:04:12;;;;;;;7.73;7.10;;;5.90;52.30;;;;;;5095017;28;20241;-78
2022/02/22 05:06:38;;;;;;;8.67;7.60;;;5.90;52.60;;;;;;5095012;28;20251;-78
2022/02/22 05:09:04;;;;;;;7.57;7.07;;;6.00;51.70;;;;;;5095486;28;20174;-78
2022/02/22 05:11:30;;;;;;;7.80;7.10;;;5.90;52.60;;;;;;5095290;28;20189;-77
2022/02/22 05:13:56;;;;;;;8.03;7.33;;;5.90;52.90;;;;;;5113098;28;20807;-78
2022/02/22 05:16:22;;;;;;;7.70;7.20;;;5.90;53.10;;;;;;5095308;28;20200;-78
2022/02/22 05:18:47;;;;;;;8.03;7.40;;;5.80;53.20;;;;;;5095153;28;20614;-78
2022/02/22 05:21:13;;;;;;;8.20;7.43;;;5.90;53.80;;;;;;5095329;28;20184;-79
2022/02/22 05:23:40;;;;;;;7.73;7.10;;;5.90;53.30;;;;;;5095445;28;20178;-80
2022/02/22 05:26:09;;;;;;;7.60;7.00;;;6.10;52.30;;;;;;5095620;28;20197;-80
2022/02/22 05:28:44;;;;;;;8.33;6.73;;;6.00;52.10;;;;;;5094820;28;20445;-80
2022/02/22 05:31:12;;;;;;;8.47;7.87;;;6.10;51.40;;;;;;5095361;28;20423;-78
2022/02/22 05:33:37;;;;;;;8.07;7.37;;;6.10;51.70;;;;;;5095152;28;20494;-78
2022/02/22 05:36:03;;;;;;;8.03;7.40;;;6.00;51.90;;;;;;5095381;28;20542;-78
2022/02/22 05:38:29;;;;;;;7.97;7.30;;;6.00;51.90;;;;;;5094683;28;20181;-78
2022/02/22 05:40:55;;;;;;;9.00;8.30;;;6.00;52.10;;;;;;5094342;28;20496;-79
2022/02/22 05:43:20;;;;;;;8.67;7.87;;;6.00;52.10;;;;;;5094273;28;20185;-78
2022/02/22 05:45:47;;;;;;;8.03;7.43;;;5.90;51.40;;;;;;5094205;28;20725;-78
2022/02/22 05:48:12;;;;;;;11.20;7.70;;;5.80;51.50;;;;;;5094406;28;20542;-79
2022/02/22 05:50:38;;;;;;;7.80;7.00;;;5.90;51.50;;;;;;5093243;28;20403;-79
2022/02/22 05:53:05;;;;;;;8.10;7.50;;;5.80;51.50;;;;;;5094152;28;20426;-78
2022/02/22 05:55:31;;;;;;;7.97;7.20;;;5.90;51.40;;;;;;5094237;28;20210;-78
2022/02/22 05:57:57;;;;;;;8.23;7.50;;;5.80;51.00;;;;;;5093925;28;20516;-78
2022/02/22 06:00:22;;;;;;;8.47;7.77;;;5.70;51.90;;;;;;5092865;28;20411;-78
2022/02/22 06:02:48;;;;;;;9.97;9.07;;;5.80;51.20;;;;;;5093849;28;20185;-78
2022/02/22 06:05:14;;;;;;;8.20;7.43;;;5.70;51.00;;;;;;5094033;28;20730;-79
2022/02/22 06:07:40;;;;;;;8.10;7.50;;;5.90;50.50;;;;;;5093674;28;20268;-79
2022/02/22 06:10:06;;;;;;;9.43;8.47;;;5.90;50.10;;;;;;5094306;28;20181;-78
2022/02/22 06:12:32;;;;;;;7.57;7.17;;;5.80;49.50;;;;;;5093173;28;20174;-78
2022/02/22 06:14:58;;;;;;;8.20;7.43;;;5.80;50.80;;;;;;5093821;28;20423;-78
2022/02/22 06:17:24;;;;;;;8.10;7.50;;;5.80;50.10;;;;;;5093804;28;20431;-78
2022/02/22 06:19:50;;;;;;;7.93;7.23;;;5.90;50.00;;;;;;5093728;28;20238;-79
2022/02/22 06:22:16;;;;;;;8.33;7.53;;;5.80;50.30;;;;;;5093900;28;20209;-78
2022/02/22 06:24:42;;;;;;;8.17;7.07;;;5.70;51.90;;;;;;5093666;28;20866;-78
2022/02/22 06:27:08;;;;;;;9.23;8.53;;;5.70;51.40;;;;;;5093654;28;20512;-78
2022/02/22 06:29:34;;;;;;;8.47;7.97;;;5.70;51.90;;;;;;5093478;28;20885;-78
2022/02/22 06:32:00;;;;;;;8.40;7.70;;;5.70;51.30;;;;;;5093798;28;20428;-81
2022/02/22 06:34:26;;;;;;;8.10;7.50;;;5.70;51.70;;;;;;5093314;28;20419;-82
2022/02/22 06:36:52;;;;;;;8.73;8.13;;;5.80;51.80;;;;;;5093991;28;20181;-78
2022/02/22 06:39:18;;;;;;;11.70;8.30;;;5.70;51.70;;;;;;5093798;28;20756;-78
2022/02/22 06:41:44;;;;;;;9.53;7.30;;;5.80;52.30;;;;;;5093226;28;20424;-78
2022/02/22 06:44:09;;;;;;;9.00;8.30;;;5.80;52.20;;;;;;5093617;28;20431;-78
2022/02/22 06:46:35;;;;;;;8.37;7.73;;;5.70;52.30;;;;;;5093307;28;20202;-77
2022/02/22 06:49:01;;;;;;;8.17;7.37;;;5.70;52.30;;;;;;5093570;28;20547;-77
2022/02/22 06:51:26;;;;;;;12.00;8.30;;;5.60;53.50;;;;;;5093586;28;20182;-78
2022/02/22 06:53:52;;;;;;;8.77;7.87;;;5.60;53.80;;;;;;5093632;28;20228;-77
2022/02/22 06:56:18;;;;;;;8.77;8.13;;;5.70;53.60;;;;;;5093225;28;20246;-78
2022/02/22 06:58:44;;;;;;;9.10;8.20;;;5.60;53.50;;;;;;5088389;28;20185;-77
2022/02/22 07:01:10;;;;;;;9.40;8.40;;;5.70;53.30;;;;;;5073368;28;20416;-77
2022/02/22 07:03:36;;;;;;;8.40;7.80;;;5.70;52.90;;;;;;5072711;28;20785;-77
2022/02/22 07:06:01;;;;;;;8.77;7.80;;;5.60;53.20;;;;;;5084110;28;20217;-77
2022/02/22 07:08:28;;;;;;;8.67;8.07;;;5.70;53.60;;;;;;5093333;28;20182;-78
2022/02/22 07:10:53;;;;;;;8.77;8.10;;;5.70;53.10;;;;;;5093086;28;20569;-77
2022/02/22 07:13:19;;;;;;;8.73;7.97;;;5.60;52.90;;;;;;5093166;28;20436;-78
2022/02/22 07:15:45;;;;;;;8.37;7.57;;;5.60;54.30;;;;;;5093335;28;20178;-78
2022/02/22 07:18:11;;;;;;;11.70;8.37;;;5.70;52.30;;;;;;5092800;28;20193;-78
2022/02/22 07:20:37;;;;;;;10.90;8.77;;;5.60;53.50;;;;;;5093208;28;20178;-78
2022/02/22 07:23:03;;;;;;;9.10;8.30;;;5.90;52.70;;;;;;5119549;28;20921;-78
2022/02/22 07:25:31;;;;;;;9.83;8.67;;;5.90;51.90;;;;;;5094056;28;20885;-77
2022/02/22 07:27:58;;;;;;;8.83;8.03;;;6.00;52.10;;;;;;5095688;28;20500;-78
2022/02/22 07:30:25;;;;;;;9.23;8.23;;;6.10;51.80;;;;;;5095487;28;20789;-78
2022/02/22 07:32:56;;;;;;;9.30;8.20;;;6.10;51.80;;;;;;5096432;28;20774;-79
2022/02/22 07:35:22;;;;;;;8.10;7.40;;;6.10;51.20;;;;;;5096595;28;20423;-79
2022/02/22 07:37:48;;;;;;;8.23;7.43;;;6.20;51.30;;;;;;5096845;28;20411;-78
2022/02/22 07:40:16;;;;;;;8.37;7.63;;;6.20;51.00;;;;;;5096260;28;20426;-78
2022/02/22 07:42:42;;;;;;;8.27;7.63;;;6.20;50.50;;;;;;5096508;28;20507;-78
2022/02/22 07:45:08;;;;;;;8.20;7.40;;;6.20;50.90;;;;;;5096599;28;20898;-79
2022/02/22 07:47:34;;;;;;;9.33;7.30;;;6.30;49.70;;;;;;5096053;28;20170;-76
2022/02/22 07:50:00;;;;;;;9.13;8.23;;;6.30;49.30;;;;;;5096695;28;20420;-77
2022/02/22 07:52:27;;;;;;;8.47;7.80;;;6.20;50.20;;;;;;5095835;28;20419;-77
2022/02/22 07:54:53;;;;;;;8.83;8.10;;;6.30;49.30;;;;;;5096257;28;20202;-77
2022/02/22 07:57:19;;;;;;;8.50;7.90;;;6.40;48.30;;;;;;5096391;28;20457;-81
2022/02/22 07:59:45;;;;;;;9.97;8.30;;;6.40;49.40;;;;;;5096552;28;20487;-81
2022/02/22 08:02:11;;;;;;;8.57;7.67;;;6.40;49.40;;;;;;5096338;28;20491;-81
2022/02/22 08:04:36;;;;;;;7.73;6.93;;;6.40;49.00;;;;;;5096117;28;20538;-81
2022/02/22 08:07:03;;;;;;;9.30;6.90;;;6.40;48.40;;;;;;5096322;28;20217;-81
2022/02/22 08:09:28;;;;;;;7.77;7.17;;;6.50;47.90;;;;;;5114403;28;20678;-81
2022/02/22 08:11:54;;;;;;;7.80;7.30;;;6.50;48.00;;;;;;5095807;28;20420;-81
2022/02/22 08:14:20;;;;;;;11.83;7.50;;;6.70;46.90;;;;;;5095953;28;20174;-81
2022/02/22 08:16:45;;;;;;;7.70;7.13;;;6.60;47.00;;;;;;5095916;28;20208;-81
2022/02/22 08:19:13;;;;;;;8.07;7.37;;;6.60;47.30;;;;;;5078409;28;20729;-81
2022/02/22 08:21:38;;;;;;;8.07;7.27;;;6.60;47.60;;;;;;5110640;28;20768;-82
2022/02/22 08:24:04;;;;;;;8.20;7.40;;;6.70;48.10;;;;;;5095578;28;20411;-81
2022/02/22 08:26:30;;;;;;;8.40;7.40;;;6.70;47.40;;;;;;5095405;28;20212;-81
2022/02/22 08:28:56;;;;;;;9.10;7.80;;;6.80;46.60;;;;;;5095215;28;20428;-77
2022/02/22 08:31:26;;;;;;;8.60;7.70;;;6.90;47.30;;;;;;5095810;28;20170;-78
2022/02/22 08:33:58;;;;;;;8.30;7.80;;;6.80;46.60;;;;;;5095237;28;20408;-76
2022/02/22 08:36:51;;;;;;;7.90;7.30;;;7.00;47.60;;;;;;5096004;28;20170;-77
2022/02/22 08:39:17;;;;;;;7.40;6.80;;;7.10;46.00;;;;;;5096109;28;20419;-76
2022/02/22 08:41:55;;;;;;;7.87;7.00;;;7.20;47.50;;;;;;5078957;28;20424;-76
2022/02/22 08:44:21;;;;;;;7.70;7.00;;;7.20;46.00;;;;;;5095408;28;20507;-77
2022/02/22 08:46:48;;;;;;;8.73;7.90;;;7.30;45.30;;;;;;5095438;28;20451;-77
2022/02/22 08:49:14;;;;;;;7.07;6.47;;;7.30;44.50;;;;;;5095903;28;20441;-78
2022/02/22 08:51:40;;;;;;;8.23;7.53;;;7.30;44.40;;;;;;5095461;28;20906;-78
2022/02/22 08:54:07;;;;;;;9.83;7.30;;;7.30;45.70;;;;;;5095419;28;20267;-78
2022/02/22 08:56:33;;;;;;;9.23;7.40;;;7.30;45.10;;;;;;5095318;28;20578;-78
2022/02/22 08:58:59;;;;;;;7.77;6.77;;;7.50;44.60;;;;;;5095387;28;20501;-77
2022/02/22 09:01:25;;;;;;;6.77;6.37;;;7.40;44.80;;;;;;5095266;28;20264;-78
2022/02/22 09:03:50;;;;;;;6.87;6.37;;;7.50;44.90;;;;;;5095012;28;20510;-78
2022/02/22 09:06:16;;;;;;;8.40;7.60;;;7.50;44.50;;;;;;5095321;28;20205;-78
2022/02/22 09:08:41;;;;;;;7.97;7.07;;;7.60;44.60;;;;;;5094969;28;20185;-78
2022/02/22 09:11:07;;;;;;;8.33;7.50;;;7.50;45.40;;;;;;5095003;28;20166;-78
2022/02/22 09:13:33;;;;;;;6.80;6.40;;;7.50;45.20;;;;;;5094740;28;20528;-77
2022/02/22 09:15:58;;;;;;;10.87;7.07;;;7.50;45.20;;;;;;5095033;28;20695;-78
2022/02/22 09:18:24;;;;;;;6.80;6.30;;;7.60;46.00;;;;;;5112759;28;20176;-77
2022/02/22 09:20:50;;;;;;;7.70;6.43;;;7.60;44.50;;;;;;5094751;28;20312;-77
2022/02/22 09:23:15;;;;;;;8.03;7.23;;;7.60;45.60;;;;;;5094543;28;20170;-78
2022/02/22 09:25:41;;;;;;;9.90;7.10;;;7.60;45.70;;;;;;5094329;28;20201;-79
2022/02/22 09:28:08;;;;;;;9.97;6.90;;;7.70;45.10;;;;;;5095022;28;20176;-77
2022/02/22 09:30:35;;;;;;;8.23;7.33;;;7.70;45.00;;;;;;5094437;28;20177;-77
2022/02/22 09:33:02;;;;;;;12.63;6.30;;;7.70;45.60;;;;;;5094452;28;20415;-77
2022/02/22 09:35:29;;;;;;;12.37;7.00;;;7.70;45.60;;;;;;5094340;28;20492;-77
2022/02/22 09:37:56;;;;;;;6.53;6.13;;;7.80;45.80;;;;;;5094679;28;20422;-77
2022/02/22 09:40:24;;;;;;;6.67;6.30;;;7.80;45.50;;;;;;5094087;28;20951;-77
2022/02/22 09:42:50;;;;;;;6.47;5.90;;;7.80;45.70;;;;;;5094312;28;20422;-82
2022/02/22 09:45:16;;;;;;;9.10;6.90;;;7.80;45.00;;;;;;5094356;28;20462;-80
2022/02/22 09:47:46;;;;;;;6.40;5.93;;;7.80;44.70;;;;;;5084186;28;20416;-81
2022/02/22 09:50:14;;;;;;;6.60;6.00;;;7.80;44.80;;;;;;5082420;28;20418;-81
2022/02/22 09:52:42;;;;;;;6.43;5.90;;;7.80;45.40;;;;;;5081236;28;20510;-81
2022/02/22 09:55:08;;;;;;;11.67;6.67;;;7.90;45.70;;;;;;5081904;28;20411;-81
2022/02/22 09:57:35;;;;;;;8.83;6.77;;;8.00;45.70;;;;;;5082401;28;20473;-84
2022/02/22 10:00:01;;;;;;;6.60;6.30;;;8.10;43.90;;;;;;5085766;28;20411;-81
2022/02/22 10:02:39;;;;;;;6.77;6.17;;;8.00;44.70;;;;;;5075582;28;20507;-82
2022/02/22 10:05:16;;;;;;;6.80;6.40;;;8.00;44.40;;;;;;5072940;28;20440;-81
2022/02/22 10:08:00;;;;;;;7.20;6.50;;;7.90;45.80;;;;;;5072683;28;21003;-82
2022/02/22 10:10:33;;;;;;;7.40;6.63;;;8.00;46.00;;;;;;5073158;28;20925;-81
2022/02/22 10:12:58;;;;;;;6.13;5.73;;;8.00;44.90;;;;;;5073642;28;20419;-81
2022/02/22 10:15:24;;;;;;;6.57;6.07;;;8.00;44.80;;;;;;5073832;28;20412;-81
2022/02/22 10:17:53;;;;;;;6.03;5.67;;;8.20;44.50;;;;;;5073391;28;20288;-81
2022/02/22 10:20:20;;;;;;;6.00;5.50;;;8.20;44.40;;;;;;5073863;28;20227;-80
2022/02/22 10:22:57;;;;;;;9.00;6.03;;;8.30;43.50;;;;;;5073537;28;20427;-82
2022/02/22 10:25:25;;;;;;;6.30;5.37;;;8.40;43.30;;;;;;5073710;28;20538;-78
2022/02/22 10:27:53;;;;;;;8.87;6.90;;;8.40;44.20;;;;;;5084535;28;20427;-79
2022/02/22 10:30:32;;;;;;;6.77;6.10;;;8.40;43.80;;;;;;5073398;28;20904;-78
2022/02/22 10:32:59;;;;;;;7.30;6.80;;;8.40;44.30;;;;;;5072617;28;21003;-77
2022/02/22 10:35:32;;;;;;;6.60;5.63;;;8.40;44.70;;;;;;5073126;28;20788;-78
2022/02/22 10:38:10;;;;;;;8.10;5.80;;;8.50;45.10;;;;;;5073344;28;20574;-78
2022/02/22 10:40:35;;;;;;;7.30;5.47;;;8.50;43.90;;;;;;5073025;28;20760;-78
2022/02/22 10:43:01;;;;;;;6.67;5.30;;;8.60;43.90;;;;;;5073547;28;20425;-78
2022/02/22 10:45:27;;;;;;;5.77;5.37;;;8.50;43.60;;;;;;5073027;28;20209;-78
2022/02/22 10:47:55;;;;;;;5.70;5.40;;;8.60;44.10;;;;;;5073296;28;20243;-78
2022/02/22 10:50:26;;;;;;;7.00;6.43;;;8.60;44.50;;;;;;5073396;28;20171;-78
2022/02/22 10:52:52;;;;;;;8.50;5.90;;;8.70;44.20;;;;;;5072711;28;20409;-78
2022/02/22 10:55:18;;;;;;;7.03;5.33;;;8.80;44.50;;;;;;5073543;28;20416;-81
2022/02/22 10:57:46;;;;;;;5.90;5.40;;;9.00;44.00;;;;;;5073120;28;20447;-80
2022/02/22 11:00:12;;;;;;;13.93;7.10;;;9.10;43.30;;;;;;5073948;28;20940;-79
2022/02/22 11:02:38;;;;;;;13.13;6.90;;;9.30;45.10;;;;;;5095135;28;20904;-80
2022/02/22 11:05:05;;;;;;;5.83;5.33;;;9.20;43.60;;;;;;5077159;28;20507;-80
2022/02/22 11:07:31;;;;;;;10.23;5.57;;;9.20;41.90;;;;;;5076796;28;20171;-77
2022/02/22 11:09:59;;;;;;;5.50;4.90;;;9.10;44.10;;;;;;5077117;28;20409;-77
2022/02/22 11:12:30;;;;;;;5.53;5.13;;;9.20;46.80;;;;;;5076889;28;20412;-77
2022/02/22 11:15:05;;;;;;;5.37;5.00;;;9.20;45.40;;;;;;5076620;28;20419;-78
2022/02/22 11:17:30;;;;;;;6.93;5.50;;;9.10;43.30;;;;;;5076656;28;20436;-77
2022/02/22 11:19:56;;;;;;;8.33;5.10;;;9.20;44.00;;;;;;5076785;28;20419;-77
2022/02/22 11:22:24;;;;;;;5.43;5.10;;;9.10;42.40;;;;;;5076489;28;20198;-77
2022/02/22 11:24:56;;;;;;;5.40;5.10;;;9.20;43.40;;;;;;5076528;28;20185;-77
2022/02/22 11:27:41;;;;;;;5.70;5.20;;;9.20;43.30;;;;;;5095174;28;20988;-82
2022/02/22 11:30:08;;;;;;;7.53;4.97;;;9.10;46.50;;;;;;5076353;28;20503;-79
2022/02/22 11:32:35;;;;;;;5.90;4.87;;;9.00;42.50;;;;;;5076051;28;20916;-75
2022/02/22 11:35:14;;;;;;;7.80;5.87;;;9.00;45.40;;;;;;5076796;28;20429;-77
2022/02/22 11:37:39;;;;;;;5.43;5.00;;;9.00;42.50;;;;;;5081464;28;20449;-78
2022/02/22 11:40:06;;;;;;;6.17;5.57;;;9.00;42.50;;;;;;5087231;28;20824;-77
2022/02/22 11:42:33;;;;;;;6.20;5.67;;;9.10;43.10;;;;;;5085329;28;20541;-77
2022/02/22 11:45:08;;;;;;;7.37;5.10;;;9.10;42.50;;;;;;5084642;28;20424;-77
2022/02/22 11:47:36;;;;;;;8.90;6.17;;;9.20;41.90;;;;;;5088215;28;20419;-76
2022/02/22 11:50:14;;;;;;;6.60;6.20;;;9.20;42.60;;;;;;5105301;28;20905;-77
2022/02/22 11:52:50;;;;;;;8.33;6.13;;;9.20;42.60;;;;;;5088200;28;20852;-76
2022/02/22 11:55:19;;;;;;;6.93;6.23;;;9.20;43.10;;;;;;5077539;28;20412;-75
2022/02/22 11:57:47;;;;;;;8.00;6.93;;;9.10;44.00;;;;;;5095373;28;20537;-76
2022/02/22 12:00:14;;;;;;;6.43;5.83;;;9.10;43.20;;;;;;5089872;28;20170;-77
2022/02/22 12:02:44;;;;;;;11.57;6.47;;;9.10;43.90;;;;;;5094538;28;20400;-77
2022/02/22 12:05:38;;;;;;;6.27;5.87;;;9.00;44.00;;;;;;5087808;28;20502;-76
2022/02/22 12:08:10;;;;;;;9.80;6.77;;;9.10;44.60;;;;;;5084619;28;20408;-77
2022/02/22 12:10:54;;;;;;;7.37;6.57;;;9.30;44.00;;;;;;5086825;28;20914;-76
2022/02/22 12:13:22;;;;;;;6.50;6.00;;;9.30;43.70;;;;;;5086737;28;20412;-75
2022/02/22 12:15:48;;;;;;;11.80;7.00;;;9.40;42.60;;;;;;5084974;28;20421;-75
2022/02/22 12:18:25;;;;;;;7.43;5.60;;;9.40;42.00;;;;;;5085140;28;20417;-75
2022/02/22 12:20:54;;;;;;;5.53;5.00;;;9.50;42.00;;;;;;5085851;28;20428;-76
2022/02/22 12:23:24;;;;;;;9.50;6.03;;;9.40;41.70;;;;;;5102310;28;20419;-75
2022/02/22 12:25:53;;;;;;;6.17;5.37;;;9.50;41.30;;;;;;5086003;28;20460;-75
2022/02/22 12:28:21;;;;;;;6.73;6.17;;;9.50;42.10;;;;;;5087577;28;20753;-76
2022/02/22 12:30:47;;;;;;;5.43;4.90;;;9.50;41.70;;;;;;5079038;28;20420;-80
2022/02/22 12:33:15;;;;;;;7.30;6.40;;;9.50;41.40;;;;;;5080296;28;20410;-79
2022/02/22 12:35:49;;;;;;;9.00;5.90;;;9.60;41.30;;;;;;5092425;28;20412;-79
2022/02/22 12:38:20;;;;;;;5.10;4.70;;;9.50;42.10;;;;;;5089685;28;20411;-75
2022/02/22 12:40:47;;;;;;;8.20;7.50;;;9.60;41.60;;;;;;5088068;28;20419;-77
2022/02/22 12:43:14;;;;;;;6.17;5.60;;;9.60;41.40;;;;;;5085963;28;20810;-78
2022/02/22 12:45:49;;;;;;;5.20;4.93;;;9.60;41.10;;;;;;5077578;28;20464;-75
2022/02/22 12:48:20;;;;;;;6.13;5.43;;;9.70;40.70;;;;;;5091277;28;20403;-75
2022/02/22 12:50:57;;;;;;;8.73;6.10;;;9.70;41.00;;;;;;5093989;28;20422;-75
2022/02/22 12:53:27;;;;;;;5.13;4.73;;;9.70;40.80;;;;;;5085630;28;20416;-75
2022/02/22 12:55:54;;;;;;;7.50;5.40;;;9.80;39.80;;;;;;5084352;28;20912;-75